Time;durP1;ratioP1;P1;durP2;ratioP2;P2;SDS_P1;SDS_P2;PMS_P1;PMS_P2;Temp;Humidity;BMP_temperature;BMP_pressure;BME280_temperature;BME280_humidity;BME280_pressure;Samples;Min_cycle;Max_cycle;Signal;HPM_P1;HPM_P2
2022/04/11 00:00:48;;;;;;;10.23;4.28;;;8.30;93.30;;;;;;5016282;28;20539;-90
2022/04/11 00:03:13;;;;;;;7.93;4.72;;;8.30;93.40;;;;;;5016301;28;20044;-90
2022/04/11 00:05:39;;;;;;;10.93;5.10;;;8.30;93.60;;;;;;4999775;28;20033;-89
2022/04/11 00:08:05;;;;;;;9.70;4.72;;;8.20;93.80;;;;;;4999737;28;20472;-90
2022/04/11 00:10:31;;;;;;;12.82;5.25;;;8.20;93.90;;;;;;5017432;28;20034;-90
2022/04/11 00:13:04;;;;;;;11.75;4.68;;;8.20;94.10;;;;;;5016100;28;20073;-90
2022/04/11 00:15:33;;;;;;;9.70;4.25;;;8.20;94.30;;;;;;5016004;28;20022;-89
2022/04/11 00:18:01;;;;;;;9.18;4.97;;;8.10;94.40;;;;;;5016049;28;20022;-89
2022/04/11 00:20:26;;;;;;;11.18;4.40;;;8.10;94.50;;;;;;5015983;28;20500;-90
2022/04/11 00:22:52;;;;;;;10.18;4.78;;;8.10;94.60;;;;;;4999504;28;20120;-90
2022/04/11 00:25:18;;;;;;;8.70;4.82;;;8.10;94.70;;;;;;4999682;28;20056;-90
2022/04/11 00:27:43;;;;;;;13.45;5.43;;;8.10;94.80;;;;;;4999304;28;20042;-91
2022/04/11 00:30:10;;;;;;;9.98;4.30;;;8.00;94.90;;;;;;4999433;28;20034;-90
2022/04/11 00:32:44;;;;;;;9.63;5.35;;;8.00;95.00;;;;;;5015624;28;20037;-90
2022/04/11 00:35:10;;;;;;;11.98;4.97;;;8.00;95.20;;;;;;4999536;28;20121;-90
2022/04/11 00:37:37;;;;;;;8.20;4.38;;;8.00;95.20;;;;;;4999280;28;20107;-90
2022/04/11 00:40:07;;;;;;;10.18;4.45;;;7.90;95.30;;;;;;4999265;28;20034;-89
2022/04/11 00:42:33;;;;;;;9.07;4.70;;;7.90;95.40;;;;;;4999055;28;20036;-90
2022/04/11 00:44:59;;;;;;;12.75;5.53;;;7.90;95.60;;;;;;5015540;28;20018;-89
2022/04/11 00:47:26;;;;;;;10.60;5.60;;;7.90;95.70;;;;;;4998924;28;20034;-89
2022/04/11 00:49:56;;;;;;;12.65;4.93;;;7.90;95.80;;;;;;5015661;28;20105;-89
2022/04/11 00:52:21;;;;;;;6.82;4.50;;;7.80;95.90;;;;;;5015347;28;20386;-89
2022/04/11 00:54:47;;;;;;;9.95;5.15;;;7.80;95.90;;;;;;4999127;28;20030;-90
2022/04/11 00:57:15;;;;;;;9.05;4.82;;;7.70;96.00;;;;;;4999155;28;20033;-90
2022/04/11 00:59:41;;;;;;;11.10;5.20;;;7.70;96.10;;;;;;4998572;28;20033;-91
2022/04/11 01:02:07;;;;;;;7.93;4.72;;;7.70;96.30;;;;;;4998557;28;20030;-89
2022/04/11 01:04:34;;;;;;;9.90;4.60;;;7.70;96.50;;;;;;4999052;28;20045;-89
2022/04/11 01:06:59;;;;;;;9.88;4.40;;;7.70;96.70;;;;;;4998717;28;20033;-88
2022/04/11 01:09:26;;;;;;;8.50;4.50;;;7.70;96.80;;;;;;4998452;28;20018;-89
2022/04/11 01:11:52;;;;;;;10.75;5.07;;;7.70;97.00;;;;;;4998537;28;20034;-89
2022/04/11 01:14:20;;;;;;;10.00;4.30;;;7.70;97.10;;;;;;5015138;28;20026;-90
2022/04/11 01:16:53;;;;;;;8.80;4.15;;;7.70;97.20;;;;;;5014974;28;20121;-89
2022/04/11 01:19:20;;;;;;;8.38;4.05;;;7.60;97.30;;;;;;4998556;28;20481;-90
2022/04/11 01:21:49;;;;;;;10.20;4.63;;;7.60;97.40;;;;;;5014586;28;20460;-89
2022/04/11 01:24:23;;;;;;;8.63;4.28;;;7.60;97.50;;;;;;5014640;28;20026;-90
2022/04/11 01:26:49;;;;;;;9.38;4.50;;;7.60;97.60;;;;;;5014635;28;20452;-90
2022/04/11 01:29:19;;;;;;;10.90;4.78;;;7.60;97.80;;;;;;4998111;28;20056;-89
2022/04/11 01:31:45;;;;;;;9.38;3.83;;;7.60;98.00;;;;;;4998925;28;20061;-90
2022/04/11 01:34:11;;;;;;;11.65;4.63;;;7.60;98.00;;;;;;4998161;28;20021;-90
2022/04/11 01:36:36;;;;;;;13.73;6.10;;;7.50;98.20;;;;;;4998331;28;20516;-90
2022/04/11 01:39:03;;;;;;;9.77;4.40;;;7.60;98.30;;;;;;5014424;28;20030;-90
2022/04/11 01:41:28;;;;;;;8.32;4.20;;;7.60;98.40;;;;;;5014522;28;20018;-90
2022/04/11 01:43:54;;;;;;;9.32;3.95;;;7.50;98.50;;;;;;4997763;28;20367;-90
2022/04/11 01:46:20;;;;;;;6.35;3.78;;;7.50;98.60;;;;;;4997830;28;20029;-90
2022/04/11 01:48:45;;;;;;;8.38;3.55;;;7.50;98.80;;;;;;4997981;28;20030;-90
2022/04/11 01:51:12;;;;;;;7.70;3.97;;;7.50;98.90;;;;;;4997916;28;20018;-90
2022/04/11 01:53:39;;;;;;;7.13;4.07;;;7.50;99.00;;;;;;4997870;28;20026;-90
2022/04/11 01:56:04;;;;;;;10.13;4.00;;;7.40;99.00;;;;;;5014371;28;20083;-90
2022/04/11 01:58:30;;;;;;;8.63;4.70;;;7.40;99.10;;;;;;4997967;28;20030;-90
2022/04/11 02:00:58;;;;;;;7.53;3.72;;;7.40;99.20;;;;;;4997766;28;20071;-90
2022/04/11 02:03:24;;;;;;;10.68;4.47;;;7.40;99.30;;;;;;4997920;28;20060;-89
2022/04/11 02:05:50;;;;;;;11.82;4.55;;;7.40;99.30;;;;;;5013998;28;20029;-90
2022/04/11 02:08:16;;;;;;;8.38;4.63;;;7.40;99.30;;;;;;4999874;28;20022;-90
2022/04/11 02:10:42;;;;;;;7.45;4.00;;;7.40;99.40;;;;;;5016271;28;20030;-89
2022/04/11 02:13:08;;;;;;;8.35;3.88;;;7.30;99.40;;;;;;4997565;28;20026;-90
2022/04/11 02:15:34;;;;;;;8.05;3.90;;;7.30;99.60;;;;;;5014496;28;20025;-90
2022/04/11 02:18:00;;;;;;;10.80;4.20;;;7.30;99.80;;;;;;4997867;28;20127;-90
2022/04/11 02:20:26;;;;;;;7.72;4.38;;;7.30;99.90;;;;;;4997955;28;20030;-90
2022/04/11 02:22:57;;;;;;;9.57;3.97;;;7.30;99.90;;;;;;4997456;28;20026;-90
2022/04/11 02:25:24;;;;;;;;;;;7.30;99.90;;;;;;4997779;28;20113;-90
2022/04/11 02:27:51;;;;;;;9.02;4.25;;;7.30;99.90;;;;;;5013338;28;19925;-90
2022/04/11 02:30:18;;;;;;;11.52;4.00;;;7.20;99.90;;;;;;4997476;28;20038;-90
2022/04/11 02:32:45;;;;;;;8.82;4.63;;;7.20;99.90;;;;;;4997212;28;20038;-90
2022/04/11 02:35:11;;;;;;;8.82;4.18;;;7.20;99.90;;;;;;5013670;28;20021;-89
2022/04/11 02:37:37;;;;;;;8.95;4.55;;;7.20;99.90;;;;;;5013797;28;20128;-90
2022/04/11 02:40:05;;;;;;;7.55;3.90;;;7.10;99.90;;;;;;5013548;28;20112;-90
2022/04/11 02:42:31;;;;;;;12.27;5.13;;;7.20;99.90;;;;;;4997132;28;20037;-91
2022/04/11 02:44:57;;;;;;;10.32;4.38;;;7.10;99.90;;;;;;5013636;28;20562;-90
2022/04/11 02:47:23;;;;;;;7.35;4.20;;;7.10;99.90;;;;;;5013583;28;20057;-90
2022/04/11 02:49:48;;;;;;;8.32;4.50;;;7.10;99.90;;;;;;4996992;28;20026;-90
2022/04/11 02:52:15;;;;;;;7.18;4.30;;;7.10;99.90;;;;;;4997138;28;20022;-90
2022/04/11 02:54:40;;;;;;;8.80;5.25;;;7.10;99.90;;;;;;4997168;28;20552;-90
2022/04/11 02:57:06;;;;;;;9.00;4.75;;;7.00;99.90;;;;;;5013430;28;20064;-90
2022/04/11 02:59:33;;;;;;;7.95;4.38;;;7.00;99.90;;;;;;5014533;28;20030;-90
2022/04/11 03:01:59;;;;;;;11.32;4.65;;;7.00;99.90;;;;;;5013529;28;20083;-89
2022/04/11 03:04:26;;;;;;;7.45;4.05;;;7.00;99.90;;;;;;4997024;28;20022;-90
2022/04/11 03:06:52;;;;;;;9.02;4.47;;;6.90;99.90;;;;;;5014403;28;20465;-90
2022/04/11 03:09:18;;;;;;;10.32;4.70;;;6.90;99.90;;;;;;5013486;28;20022;-90
2022/04/11 03:11:43;;;;;;;8.32;4.63;;;6.90;99.90;;;;;;4996843;28;20492;-90
2022/04/11 03:14:09;;;;;;;9.95;4.65;;;6.90;99.90;;;;;;5013242;28;20042;-90
2022/04/11 03:16:34;;;;;;;9.18;4.75;;;6.90;99.90;;;;;;4996864;28;20473;-89
2022/04/11 03:19:00;;;;;;;7.75;4.57;;;6.80;99.90;;;;;;4996889;28;20037;-90
2022/04/11 03:21:26;;;;;;;9.75;4.65;;;6.80;99.90;;;;;;4997098;28;20041;-90
2022/04/11 03:23:53;;;;;;;10.50;4.47;;;6.80;99.90;;;;;;5000404;28;20128;-90
2022/04/11 03:26:18;;;;;;;9.00;4.50;;;6.80;99.90;;;;;;5016972;28;20038;-90
2022/04/11 03:28:44;;;;;;;9.45;4.75;;;6.70;99.90;;;;;;5000345;28;20129;-90
2022/04/11 03:31:11;;;;;;;8.05;4.50;;;6.70;99.90;;;;;;5000736;28;20022;-89
2022/04/11 03:33:36;;;;;;;7.78;4.95;;;6.70;99.90;;;;;;5000562;28;20030;-89
2022/04/11 03:36:02;;;;;;;10.82;5.07;;;6.70;99.90;;;;;;5017061;28;20088;-90
2022/04/11 03:38:28;;;;;;;7.85;4.60;;;6.60;99.90;;;;;;5000892;28;20033;-90
2022/04/11 03:40:54;;;;;;;9.93;4.70;;;6.60;99.90;;;;;;5000501;28;20528;-90
2022/04/11 03:43:19;;;;;;;10.77;4.90;;;6.60;99.90;;;;;;5016620;28;20038;-90
2022/04/11 03:45:45;;;;;;;10.73;4.45;;;6.50;99.90;;;;;;5000325;28;20026;-90
2022/04/11 03:48:11;;;;;;;8.27;4.72;;;6.60;99.90;;;;;;5016513;28;20022;-90
2022/04/11 03:50:37;;;;;;;9.50;4.75;;;6.50;99.90;;;;;;5000512;28;20033;-90
2022/04/11 03:53:03;;;;;;;7.65;4.43;;;6.50;99.90;;;;;;5016722;28;20022;-90
2022/04/11 03:55:29;;;;;;;9.50;4.90;;;6.50;99.90;;;;;;5016390;28;20034;-90
2022/04/11 03:57:54;;;;;;;9.15;4.70;;;6.50;99.90;;;;;;5016335;28;20072;-89
2022/04/11 04:00:20;;;;;;;8.25;5.53;;;6.40;99.90;;;;;;4999997;28;20551;-90
2022/04/11 04:02:46;;;;;;;8.50;5.03;;;6.40;99.90;;;;;;4999898;28;20512;-90
2022/04/11 04:05:11;;;;;;;10.43;4.50;;;6.40;99.90;;;;;;5016196;28;20500;-90
2022/04/11 04:07:37;;;;;;;8.13;4.97;;;6.30;99.90;;;;;;4999887;28;20057;-91
2022/04/11 04:10:04;;;;;;;9.65;5.22;;;6.40;99.90;;;;;;5016223;28;20382;-90
2022/04/11 04:12:30;;;;;;;8.35;4.72;;;6.30;99.90;;;;;;4999730;28;20034;-90
2022/04/11 04:14:56;;;;;;;13.68;5.57;;;6.30;99.90;;;;;;5017168;28;20026;-90
2022/04/11 04:17:22;;;;;;;7.57;5.10;;;6.30;99.90;;;;;;4999778;28;20072;-90
2022/04/11 04:19:47;;;;;;;9.30;5.15;;;6.20;99.90;;;;;;4999698;28;20464;-90
2022/04/11 04:22:14;;;;;;;7.95;5.15;;;6.20;99.90;;;;;;5016078;28;20041;-91
2022/04/11 04:24:40;;;;;;;8.73;5.10;;;6.20;99.90;;;;;;5016099;28;20037;-91
2022/04/11 04:27:07;;;;;;;8.63;5.05;;;6.20;99.90;;;;;;5000278;28;20030;-90
2022/04/11 04:29:32;;;;;;;8.43;5.03;;;6.20;99.90;;;;;;5000551;28;20088;-90
2022/04/11 04:31:58;;;;;;;9.68;5.20;;;6.20;99.90;;;;;;4999951;28;20050;-90
2022/04/11 04:34:29;;;;;;;9.63;5.32;;;6.20;99.90;;;;;;4998996;28;20479;-90
2022/04/11 04:36:55;;;;;;;9.23;5.25;;;6.20;99.90;;;;;;5015748;28;20022;-89
2022/04/11 04:39:20;;;;;;;7.50;5.22;;;6.10;99.90;;;;;;5015743;28;20470;-90
2022/04/11 04:41:46;;;;;;;9.85;5.47;;;6.10;99.90;;;;;;4999316;28;20033;-90
2022/04/11 04:44:12;;;;;;;9.10;5.50;;;6.10;99.90;;;;;;4998991;28;20030;-90
2022/04/11 04:46:38;;;;;;;10.70;5.50;;;6.00;99.90;;;;;;4998863;28;20033;-90
2022/04/11 04:49:04;;;;;;;11.15;5.70;;;6.10;99.90;;;;;;4999108;28;20088;-90
2022/04/11 04:51:29;;;;;;;9.00;5.60;;;6.10;99.90;;;;;;4999374;28;20044;-90
2022/04/11 04:53:56;;;;;;;9.43;5.93;;;6.10;99.90;;;;;;4999125;28;20030;-90
2022/04/11 04:56:21;;;;;;;10.45;5.70;;;6.00;99.90;;;;;;4999028;28;20037;-90
2022/04/11 04:58:48;;;;;;;7.78;5.53;;;6.00;99.90;;;;;;5014565;28;20034;-90
2022/04/11 05:01:14;;;;;;;8.23;5.68;;;6.00;99.90;;;;;;5013429;28;20084;-90
2022/04/11 05:03:41;;;;;;;10.32;6.32;;;6.00;99.90;;;;;;4999818;28;20093;-89
2022/04/11 05:06:07;;;;;;;11.52;6.30;;;6.00;99.90;;;;;;5015271;28;20036;-91
2022/04/11 05:08:34;;;;;;;10.45;5.80;;;6.00;99.90;;;;;;4999321;28;20473;-90
2022/04/11 05:11:00;;;;;;;11.68;6.50;;;6.00;99.90;;;;;;5015533;28;20030;-90
2022/04/11 05:13:26;;;;;;;11.45;7.05;;;6.00;99.90;;;;;;5015642;28;20022;-90
2022/04/11 05:15:52;;;;;;;10.48;6.20;;;6.00;99.90;;;;;;5017507;28;20030;-91
2022/04/11 05:18:18;;;;;;;10.30;6.13;;;6.00;99.90;;;;;;5030945;28;20034;-90
2022/04/11 05:20:44;;;;;;;11.02;6.07;;;6.00;99.90;;;;;;5002423;28;20030;-89
2022/04/11 05:23:10;;;;;;;11.40;5.72;;;6.00;99.90;;;;;;5002861;28;20041;-90
2022/04/11 05:25:35;;;;;;;10.07;6.38;;;6.00;99.90;;;;;;5002895;28;20055;-90
2022/04/11 05:28:01;;;;;;;9.35;5.97;;;6.00;99.90;;;;;;5002156;28;20045;-90
2022/04/11 05:30:27;;;;;;;9.75;6.10;;;6.00;99.90;;;;;;5002081;28;20061;-90
2022/04/11 05:32:54;;;;;;;9.77;6.18;;;6.00;99.90;;;;;;5000512;28;20030;-89
2022/04/11 05:35:19;;;;;;;9.40;5.93;;;6.00;99.90;;;;;;5015489;28;20034;-89
2022/04/11 05:37:45;;;;;;;11.18;5.47;;;6.00;99.90;;;;;;5018145;28;20030;-88
2022/04/11 05:40:12;;;;;;;11.85;5.60;;;6.00;99.90;;;;;;4998174;28;20385;-88
2022/04/11 05:42:38;;;;;;;8.95;5.25;;;6.00;99.90;;;;;;5005706;28;20485;-89
2022/04/11 05:45:05;;;;;;;11.43;6.22;;;6.00;99.90;;;;;;5035028;28;20025;-89
2022/04/11 05:47:31;;;;;;;9.13;6.40;;;6.00;99.90;;;;;;5034263;28;20026;-89
2022/04/11 05:49:57;;;;;;;12.00;6.00;;;6.00;99.90;;;;;;5019648;28;20048;-89
2022/04/11 05:52:22;;;;;;;9.77;5.88;;;6.00;99.90;;;;;;5004086;28;20069;-89
2022/04/11 05:54:49;;;;;;;11.10;5.70;;;6.00;99.90;;;;;;5020032;28;20489;-89
2022/04/11 05:57:14;;;;;;;9.55;6.10;;;6.00;99.90;;;;;;5019391;28;20025;-89
2022/04/11 05:59:40;;;;;;;10.38;6.28;;;6.00;99.90;;;;;;5036120;28;20079;-89
2022/04/11 06:02:09;;;;;;;10.98;6.60;;;6.00;99.90;;;;;;5019272;28;20025;-89
2022/04/11 06:04:36;;;;;;;10.27;6.53;;;6.00;99.90;;;;;;5035675;28;20220;-90
2022/04/11 06:07:02;;;;;;;12.88;6.55;;;6.00;99.90;;;;;;5018622;28;20028;-89
2022/04/11 06:09:28;;;;;;;11.98;6.63;;;6.00;99.90;;;;;;5001298;28;20033;-90
2022/04/11 06:11:53;;;;;;;14.55;6.47;;;6.00;99.90;;;;;;5004433;28;20029;-89
2022/04/11 06:14:19;;;;;;;13.45;7.00;;;6.00;99.90;;;;;;5021646;28;20032;-89
2022/04/11 06:16:45;;;;;;;14.32;7.15;;;6.00;99.90;;;;;;5037977;28;20030;-89
2022/04/11 06:19:11;;;;;;;11.27;6.38;;;6.00;99.90;;;;;;5038724;28;20017;-89
2022/04/11 06:21:37;;;;;;;11.30;6.40;;;6.00;99.90;;;;;;5021608;28;20048;-89
2022/04/11 06:24:02;;;;;;;9.90;6.50;;;6.10;99.90;;;;;;5005664;28;20040;-88
2022/04/11 06:26:29;;;;;;;11.32;6.60;;;6.00;99.90;;;;;;4989279;28;20519;-90
2022/04/11 06:28:55;;;;;;;11.40;6.68;;;6.00;99.90;;;;;;5019294;28;20045;-89
2022/04/11 06:31:21;;;;;;;10.55;6.43;;;6.00;99.90;;;;;;5016947;28;20026;-89
2022/04/11 06:33:47;;;;;;;11.25;6.47;;;6.00;99.90;;;;;;5036928;28;20032;-89
2022/04/11 06:36:12;;;;;;;10.38;6.70;;;6.10;99.90;;;;;;5018043;28;20030;-89
2022/04/11 06:38:38;;;;;;;12.50;6.85;;;6.10;99.90;;;;;;5017416;28;20554;-90
2022/04/11 06:41:04;;;;;;;12.50;6.57;;;6.10;99.90;;;;;;5017206;28;20046;-90
2022/04/11 06:43:30;;;;;;;16.77;6.75;;;6.10;99.90;;;;;;5000932;28;20065;-89
2022/04/11 06:45:56;;;;;;;13.68;6.85;;;6.10;99.90;;;;;;5033800;28;20034;-90
2022/04/11 06:48:21;;;;;;;11.23;6.93;;;6.20;99.90;;;;;;5017191;28;20033;-89
2022/04/11 06:50:47;;;;;;;12.68;6.65;;;6.20;99.90;;;;;;5017410;28;20079;-89
2022/04/11 06:53:16;;;;;;;11.38;7.20;;;6.30;99.90;;;;;;5002651;28;20439;-89
2022/04/11 06:55:49;;;;;;;9.85;6.97;;;6.30;99.90;;;;;;5017429;28;20040;-90
2022/04/11 06:58:18;;;;;;;10.95;6.78;;;6.30;99.90;;;;;;5037255;28;20022;-89
2022/04/11 07:00:44;;;;;;;11.05;6.95;;;6.40;99.90;;;;;;5020955;28;20030;-89
2022/04/11 07:03:10;;;;;;;9.98;6.82;;;6.40;99.90;;;;;;5037497;28;20142;-89
2022/04/11 07:05:39;;;;;;;12.55;6.90;;;6.50;99.90;;;;;;5038598;28;20021;-89
2022/04/11 07:08:06;;;;;;;11.18;6.78;;;6.50;99.90;;;;;;5021387;28;20029;-89
2022/04/11 07:10:32;;;;;;;11.15;7.00;;;6.60;99.90;;;;;;5004535;28;20581;-89
2022/04/11 07:12:58;;;;;;;11.70;6.72;;;6.60;99.90;;;;;;5020834;28;20348;-89
2022/04/11 07:15:24;;;;;;;11.75;7.25;;;6.70;99.90;;;;;;5035173;28;20029;-89
2022/04/11 07:17:50;;;;;;;12.15;6.97;;;6.80;99.90;;;;;;5002432;28;20045;-89
2022/04/11 07:20:15;;;;;;;12.48;6.90;;;6.80;99.90;;;;;;5016905;28;20034;-89
2022/04/11 07:22:42;;;;;;;12.25;6.80;;;6.80;99.90;;;;;;5018513;28;20481;-89
2022/04/11 07:25:08;;;;;;;11.95;6.72;;;6.90;99.90;;;;;;5019988;28;20030;-89
2022/04/11 07:27:34;;;;;;;12.00;7.20;;;7.00;99.90;;;;;;5018878;28;20030;-89
2022/04/11 07:30:00;;;;;;;10.93;6.63;;;7.00;99.90;;;;;;5016375;28;20400;-89
2022/04/11 07:32:25;;;;;;;9.73;6.20;;;7.10;99.90;;;;;;5000453;28;20030;-89
2022/04/11 07:34:51;;;;;;;10.77;6.65;;;7.20;99.90;;;;;;5000384;28;20030;-89
2022/04/11 07:37:17;;;;;;;13.52;6.80;;;7.20;99.90;;;;;;5017090;28;20033;-89
2022/04/11 07:39:43;;;;;;;11.57;6.20;;;7.30;99.90;;;;;;5033913;28;20072;-89
2022/04/11 07:42:08;;;;;;;10.15;7.00;;;7.40;99.90;;;;;;5013820;23;20068;-96
2022/04/11 07:44:34;;;;;;;12.30;6.68;;;7.50;99.90;;;;;;5042782;28;20029;-95
2022/04/11 07:47:00;;;;;;;11.23;7.38;;;7.60;99.90;;;;;;5042708;28;20025;-95
2022/04/11 07:49:25;;;;;;;12.05;6.20;;;7.60;99.90;;;;;;5029790;28;20026;-92
2022/04/11 07:51:51;;;;;;;8.13;6.18;;;7.80;99.90;;;;;;5029530;28;20384;-94
2022/04/11 07:54:17;;;;;;;10.90;6.32;;;7.80;99.90;;;;;;5040567;28;20396;-95
2022/04/11 07:56:42;;;;;;;10.32;6.03;;;7.90;99.90;;;;;;5043289;28;20033;-95
2022/04/11 07:59:08;;;;;;;10.50;6.30;;;8.00;99.90;;;;;;5040266;28;20376;-93
2022/04/11 08:01:34;;;;;;;10.07;6.47;;;8.10;99.90;;;;;;5030313;28;20025;-95
2022/04/11 08:04:00;;;;;;;12.88;6.63;;;8.20;99.90;;;;;;5039534;28;20029;-95
2022/04/11 08:06:26;;;;;;;11.88;6.53;;;8.30;99.90;;;;;;5009220;28;20049;-96
2022/04/11 08:08:52;;;;;;;10.13;6.85;;;8.40;99.90;;;;;;5041680;28;20100;-94
2022/04/11 08:11:18;;;;;;;13.70;6.43;;;8.50;99.90;;;;;;5021865;28;20061;-94
2022/04/11 08:13:44;;;;;;;9.77;6.43;;;8.60;99.90;;;;;;5037080;28;20045;-95
2022/04/11 08:16:11;;;;;;;11.13;6.88;;;8.70;99.90;;;;;;5035685;28;20132;-95
2022/04/11 08:18:37;;;;;;;11.93;6.63;;;8.80;99.90;;;;;;5059484;28;20059;-94
2022/04/11 08:21:10;;;;;;;14.23;6.82;;;9.00;99.90;;;;;;5060174;28;20029;-94
2022/04/11 08:23:36;;;;;;;11.80;6.40;;;9.10;99.90;;;;;;5034451;28;20532;-93
2022/04/11 08:26:01;;;;;;;12.85;6.82;;;9.20;99.90;;;;;;5036554;28;20052;-93
2022/04/11 08:28:27;;;;;;;12.57;7.28;;;9.30;99.90;;;;;;5025065;28;20060;-95
2022/04/11 08:30:53;;;;;;;9.10;6.70;;;9.40;99.90;;;;;;5006310;28;20047;-94
2022/04/11 08:33:18;;;;;;;9.88;6.40;;;9.50;99.90;;;;;;5022173;28;20033;-94
2022/04/11 08:35:44;;;;;;;12.00;6.72;;;9.60;99.90;;;;;;5043629;28;20021;-95
2022/04/11 08:38:10;;;;;;;10.95;6.95;;;9.70;99.90;;;;;;5042648;28;20113;-96
2022/04/11 08:40:36;;;;;;;9.93;6.07;;;9.80;99.90;;;;;;5040713;28;20029;-94
2022/04/11 08:43:02;;;;;;;10.93;6.63;;;9.90;99.90;;;;;;5036982;28;20562;-93
2022/04/11 08:45:29;;;;;;;12.30;6.60;;;10.00;99.90;;;;;;5021743;28;20017;-94
2022/04/11 08:47:56;;;;;;;14.20;6.80;;;10.10;99.90;;;;;;5022590;28;20025;-94
2022/04/11 08:50:23;;;;;;;11.60;6.68;;;10.20;99.90;;;;;;5041260;28;20021;-95
2022/04/11 08:52:51;;;;;;;11.88;6.65;;;10.30;99.90;;;;;;5021379;28;20041;-94
2022/04/11 08:55:17;;;;;;;9.48;6.13;;;10.50;99.90;;;;;;5020218;28;20079;-95
2022/04/11 08:57:43;;;;;;;10.13;6.70;;;10.50;99.90;;;;;;5037886;28;20029;-94
2022/04/11 09:00:20;;;;;;;8.38;6.35;;;10.70;99.90;;;;;;5036337;28;20037;-94
2022/04/11 09:02:46;;;;;;;9.63;6.13;;;10.80;99.90;;;;;;5038147;28;20030;-95
2022/04/11 09:05:19;;;;;;;11.98;6.65;;;10.90;99.90;;;;;;5037480;28;20021;-95
2022/04/11 09:07:46;;;;;;;10.40;6.40;;;11.00;99.90;;;;;;5035875;28;20041;-96
2022/04/11 09:10:23;;;;;;;9.90;5.97;;;11.10;99.90;;;;;;5019237;28;20120;-94
2022/04/11 09:13:00;;;;;;;12.23;6.45;;;11.30;99.90;;;;;;5035791;28;20128;-94
2022/04/11 09:15:27;;;;;;;10.73;5.70;;;11.40;99.90;;;;;;5036184;28;20036;-94
2022/04/11 09:17:59;;;;;;;9.02;5.22;;;11.50;99.90;;;;;;5003156;28;20075;-94
2022/04/11 09:20:26;;;;;;;8.60;4.95;;;11.60;99.90;;;;;;5036655;28;20060;-96
2022/04/11 09:22:52;;;;;;;9.32;4.90;;;11.70;99.90;;;;;;5036696;28;20033;-94
2022/04/11 09:25:29;;;;;;;7.43;4.70;;;11.80;99.90;;;;;;5018532;28;20021;-93
2022/04/11 09:28:09;;;;;;;7.88;4.30;;;12.00;99.60;;;;;;5035652;28;20095;-96
2022/04/11 09:30:36;;;;;;;8.13;4.35;;;12.10;99.20;;;;;;5018668;28;20026;-94
2022/04/11 09:33:10;;;;;;;11.23;5.82;;;12.20;98.80;;;;;;5019591;28;20021;-95
2022/04/11 09:35:38;;;;;;;8.13;4.40;;;12.30;98.40;;;;;;5020374;28;20037;-96
2022/04/11 09:38:10;;;;;;;8.75;4.38;;;12.40;98.20;;;;;;5019583;28;20025;-94
2022/04/11 09:40:43;;;;;;;8.57;4.40;;;12.50;97.60;;;;;;5037396;28;20395;-93
2022/04/11 09:43:11;;;;;;;9.98;3.50;;;12.60;96.90;;;;;;5035327;28;20045;-93
2022/04/11 09:45:45;;;;;;;5.40;3.10;;;12.70;96.50;;;;;;5018363;28;20048;-93
2022/04/11 09:48:15;;;;;;;6.63;3.65;;;12.80;96.50;;;;;;5034478;28;20029;-93
2022/04/11 09:50:41;;;;;;;8.27;4.13;;;12.90;96.90;;;;;;5034752;28;20029;-94
2022/04/11 09:53:11;;;;;;;7.60;3.67;;;13.00;97.20;;;;;;5001848;28;20179;-94
2022/04/11 09:55:38;;;;;;;7.75;3.25;;;13.10;96.70;;;;;;5034992;28;20029;-95
2022/04/11 09:58:05;;;;;;;8.93;4.00;;;13.30;96.30;;;;;;5017730;28;20044;-93
2022/04/11 10:00:39;;;;;;;8.18;3.53;;;13.40;96.00;;;;;;5034423;28;20068;-95
2022/04/11 10:03:05;;;;;;;8.52;3.28;;;13.40;95.30;;;;;;5034576;28;20087;-95
2022/04/11 10:05:33;;;;;;;10.55;3.03;;;13.50;93.80;;;;;;5005320;28;20030;-92
2022/04/11 10:07:59;;;;;;;10.50;4.05;;;13.60;93.80;;;;;;5018311;28;20488;-93
2022/04/11 10:10:25;;;;;;;8.90;3.30;;;13.60;93.20;;;;;;5017768;28;20025;-91
2022/04/11 10:12:53;;;;;;;5.13;2.65;;;13.70;92.90;;;;;;5017773;28;20084;-93
2022/04/11 10:15:20;;;;;;;5.07;2.78;;;13.80;92.70;;;;;;5024621;28;20048;-93
2022/04/11 10:17:49;;;;;;;6.85;2.78;;;13.90;92.10;;;;;;5022727;28;20045;-93
2022/04/11 10:20:26;;;;;;;8.63;3.33;;;14.00;91.10;;;;;;5039946;28;20021;-93
2022/04/11 10:23:27;;;;;;;6.00;3.20;;;14.00;85.10;;;;;;5042862;28;20064;-93
2022/04/11 10:25:55;;;;;;;;;;;14.10;82.30;;;;;;5047200;28;20511;-93
2022/04/11 10:28:30;;;;;;;7.72;2.97;;;14.10;82.50;;;;;;5038590;28;20348;-92
2022/04/11 10:31:05;;;;;;;6.80;2.88;;;14.20;82.40;;;;;;5004985;28;20104;-94
2022/04/11 10:33:51;;;;;;;7.38;3.15;;;14.30;84.90;;;;;;5034373;28;20053;-93
2022/04/11 10:36:31;;;;;;;6.68;2.97;;;14.40;84.50;;;;;;5018883;28;20036;-91
2022/04/11 10:39:15;;;;;;;9.10;2.88;;;14.50;80.80;;;;;;5034085;28;20022;-92
2022/04/11 10:41:56;;;;;;;7.95;3.10;;;14.50;80.50;;;;;;5034372;28;20420;-90
2022/04/11 10:44:38;;;;;;;8.85;3.03;;;14.60;81.50;;;;;;5034528;28;20408;-92
2022/04/11 10:47:12;;;;;;;6.90;3.05;;;14.70;81.40;;;;;;5035387;28;20010;-91
2022/04/11 10:49:50;;;;;;;4.75;2.95;;;14.70;80.50;;;;;;5034817;28;20021;-90
2022/04/11 10:52:32;;;;;;;8.50;3.13;;;14.90;79.60;;;;;;5035916;28;20095;-90
2022/04/11 10:55:17;;;;;;;7.15;3.10;;;14.90;78.30;;;;;;5036305;28;20025;-91
2022/04/11 10:57:45;;;;;;;6.00;3.13;;;15.00;78.40;;;;;;5037333;28;20025;-93
2022/04/11 11:00:18;;;;;;;7.47;3.05;;;15.10;73.10;;;;;;5039553;28;20132;-94
2022/04/11 11:02:52;;;;;;;5.45;2.70;;;15.20;73.70;;;;;;5043018;28;20099;-95
2022/04/11 11:05:25;;;;;;;5.88;2.40;;;15.20;75.40;;;;;;5040199;28;20060;-93
2022/04/11 11:08:15;;;;;;;9.50;2.95;;;15.30;72.30;;;;;;5033336;28;20046;-91
2022/04/11 11:10:54;;;;;;;4.82;2.70;;;15.40;75.10;;;;;;5033286;28;20034;-91
2022/04/11 11:13:23;;;;;;;6.03;2.80;;;15.50;72.60;;;;;;5034537;28;20032;-91
2022/04/11 11:15:48;;;;;;;5.55;2.60;;;15.60;70.90;;;;;;5034428;28;20029;-92
2022/04/11 11:18:14;;;;;;;8.80;3.22;;;15.60;70.60;;;;;;5016834;28;20033;-90
2022/04/11 11:20:58;;;;;;;8.55;3.40;;;15.70;69.60;;;;;;4999750;28;20378;-90
2022/04/11 11:23:31;;;;;;;6.13;3.33;;;15.80;69.30;;;;;;5000465;28;20040;-90
2022/04/11 11:26:09;;;;;;;9.55;3.33;;;15.90;70.50;;;;;;5033211;28;20018;-91
2022/04/11 11:28:35;;;;;;;8.48;3.95;;;16.00;68.60;;;;;;5033227;28;20108;-90
2022/04/11 11:31:02;;;;;;;7.35;3.90;;;16.10;70.10;;;;;;5033004;28;20033;-90
2022/04/11 11:33:28;;;;;;;8.73;3.97;;;16.20;70.30;;;;;;5031542;28;20021;-91
2022/04/11 11:35:55;;;;;;;8.20;3.90;;;16.30;71.20;;;;;;5002185;28;20101;-91
2022/04/11 11:38:29;;;;;;;9.63;4.50;;;16.40;71.20;;;;;;5013123;28;20026;-90
2022/04/11 11:40:57;;;;;;;8.32;4.75;;;16.50;71.80;;;;;;5013032;28;20034;-91
2022/04/11 11:43:25;;;;;;;9.30;4.13;;;16.60;72.00;;;;;;5014861;28;20092;-91
2022/04/11 11:45:51;;;;;;;8.13;4.03;;;16.70;71.60;;;;;;5016776;28;20022;-91
2022/04/11 11:48:31;;;;;;;7.35;3.63;;;16.70;69.70;;;;;;5017008;28;20026;-90
2022/04/11 11:50:59;;;;;;;10.77;4.03;;;16.80;70.40;;;;;;5016747;28;20117;-91
2022/04/11 11:53:38;;;;;;;12.98;4.15;;;16.80;67.30;;;;;;5016553;28;20022;-90
2022/04/11 11:56:07;;;;;;;8.73;3.65;;;16.90;68.30;;;;;;5002246;28;20358;-90
2022/04/11 11:58:35;;;;;;;7.03;3.55;;;17.00;67.70;;;;;;5000804;28;20030;-91
2022/04/11 12:01:01;;;;;;;6.82;4.00;;;17.00;68.20;;;;;;5000277;28;20025;-90
2022/04/11 12:06:11;;;;;;;8.50;3.75;;;17.10;65.90;;;;;;5016841;28;20041;-90
2022/04/11 12:08:37;;;;;;;7.40;3.72;;;17.10;65.60;;;;;;4999947;28;20034;-90
2022/04/11 12:11:03;;;;;;;8.15;3.40;;;17.20;65.10;;;;;;4999830;28;20079;-89
2022/04/11 12:13:31;;;;;;;7.47;3.40;;;17.30;64.60;;;;;;5000080;28;20033;-91
2022/04/11 12:16:17;;;;;;;9.45;3.78;;;17.40;64.30;;;;;;5000179;28;20061;-90
2022/04/11 12:18:50;;;;;;;7.88;3.53;;;17.50;63.50;;;;;;5000407;28;20397;-91
2022/04/11 12:21:16;;;;;;;6.60;4.10;;;17.60;62.90;;;;;;4999748;28;20057;-90
2022/04/11 12:23:47;;;;;;;7.28;3.75;;;17.50;61.00;;;;;;4999752;28;20037;-91
2022/04/11 12:26:23;;;;;;;10.02;4.03;;;17.60;62.30;;;;;;5016237;28;20380;-90
2022/04/11 12:28:49;;;;;;;8.60;3.92;;;17.60;62.80;;;;;;5016151;28;20361;-90
2022/04/11 12:31:17;;;;;;;6.80;3.67;;;17.70;61.40;;;;;;5015542;28;20026;-89
2022/04/11 12:33:46;;;;;;;6.93;3.92;;;17.70;62.10;;;;;;4999772;28;20037;-89
2022/04/11 12:36:22;;;;;;;7.82;3.40;;;17.80;60.70;;;;;;5015601;28;20531;-90
2022/04/11 12:39:09;;;;;;;7.13;3.95;;;17.90;60.50;;;;;;5015882;28;20104;-89
2022/04/11 12:41:47;;;;;;;14.25;4.03;;;17.90;59.80;;;;;;5015730;28;20022;-90
2022/04/11 12:44:16;;;;;;;8.93;3.70;;;18.00;59.10;;;;;;5015338;28;20522;-89
2022/04/11 12:46:48;;;;;;;7.28;3.53;;;18.00;58.20;;;;;;5016070;28;20021;-88
2022/04/11 12:49:18;;;;;;;9.70;3.70;;;18.10;58.20;;;;;;5018168;28;20080;-92
2022/04/11 12:52:07;;;;;;;6.30;3.50;;;18.10;57.70;;;;;;5015837;28;20472;-91
2022/04/11 12:54:41;;;;;;;7.88;4.10;;;18.10;56.80;;;;;;4998872;28;20503;-91
2022/04/11 12:57:12;;;;;;;12.23;4.15;;;18.20;57.70;;;;;;5016638;28;20109;-91